• Join FlightAware (Why Join?)
  • Login
  • US Flag 
01:55AM EST


 

Airport Tracker/Info


-or-


 

Live Flight TrackerFlight Track Log ✈ AXM6189 ✈ 07-Oct-2013 ✈ WBGR / MYY - WBGG / KCH

Flight Track Log - Related Links

Times and Time Zones

All times are in EDT time to prevent confusion due to time zone crossing. See the AXM6189 flight status page for this flight to view local times or setup timezone preferences in your user account.

Time Position Orientation Groundspeed Altitude Reporting Facility
EDT Latitude Longitude Course Direction KTS MPH feet Rate Location/Type
10:14AM 4.1390 113.7657 200° South 329 379 15,800  Level FlightAware ADS-B (WBKK / BKI)
10:14AM 4.0942 113.7493 200° South 334 384 17,100 2,520 Climbing FlightAware ADS-B (WBKK / BKI)
10:15AM 4.0350 113.7276 200° South 335 386 18,800 1,980 Climbing FlightAware ADS-B (WBKK / BKI)
10:15AM 3.9910 113.7110 201° Southwest 347 399 19,500 1,320 Climbing FlightAware
10:16AM 3.9581 113.6994 199° South 364 419 19,900 600 Climbing FlightAware ADS-B (WBKK / BKI)
10:16AM 3.9190 113.6800 206° Southwest 364 419 20,000 60 Climbing FlightAware
10:17AM 3.8720 113.6560 207° Southwest 364 419 20,000  Level FlightAware
10:18AM 3.8260 113.6320 208° Southwest 364 419 20,000  Level FlightAware
10:18AM 3.7800 113.6090 207° Southwest 364 419 20,000  Level FlightAware
10:19AM 3.7350 113.5860 207° Southwest 364 419 20,000  Level FlightAware
10:19AM 3.6870 113.5610 207° Southwest 364 419 20,000 2,340 Level FlightAware
10:22AM 3.5485 113.3581 236° Southwest  Level Estimated
10:23AM 3.4846 113.2645 236° Southwest  Level Estimated
10:23AM 3.4230 113.0740 236° Southwest 30,600  Level FlightAware
10:23AM 3.4060 113.0540 230° Southwest 438 504 30,800 1,380 Climbing FlightAware
10:24AM 3.3617 113.0010 230° Southwest 439 505 31,600 660 Climbing FlightAware ADS-B (WBKK / BKI)
10:24AM 3.3210 112.9520 230° Southwest 438 504 31,600  Level FlightAware
10:25AM 3.2810 112.9050 230° Southwest 438 504 31,600  Level FlightAware
10:26AM 3.2410 112.8570 230° Southwest 438 504 31,600  Level FlightAware
10:26AM 3.2000 112.8080 230° Southwest 438 504 31,600  Level FlightAware
10:27AM 3.1600 112.7600 230° Southwest 438 504 31,600  Level FlightAware
10:27AM 3.1200 112.7130 230° Southwest 438 504 31,600  Level FlightAware
10:28AM 3.0820 112.6670 230° Southwest 438 504 31,600  Level FlightAware
10:29AM 3.0410 112.6180 230° Southwest 438 504 31,600 3,060 Level FlightAware
10:29AM 2.9420 112.4460 240° Southwest 451 519 36,000 3,120 Climbing FlightAware
10:30AM 2.9030 112.3950 233° Southwest 451 519 36,000  Level FlightAware
10:31AM 2.8640 112.3420 234° Southwest 451 519 36,000  Level FlightAware
10:31AM 2.8260 112.2930 232° Southwest 451 519 36,000  Level FlightAware
10:32AM 2.7880 112.2420 233° Southwest 451 519 36,000  Level FlightAware
10:32AM 2.7480 112.1890 233° Southwest 451 519 36,000  Level FlightAware
10:33AM 2.7100 112.1380 233° Southwest 451 519 36,000  Level FlightAware
10:34AM 2.6720 112.0870 233° Southwest 451 519 36,000  Level FlightAware
10:34AM 2.6310 112.0330 233° Southwest 451 519 36,000  Level FlightAware
10:35AM 2.5930 111.9820 233° Southwest 451 519 36,000  Level FlightAware
10:35AM 2.5540 111.9310 233° Southwest 451 519 36,000  Level FlightAware
10:36AM 2.5150 111.8790 233° Southwest 451 519 36,000  Level FlightAware
10:37AM 2.4780 111.8300 233° Southwest 451 519 36,000  Level FlightAware
10:37AM 2.4410 111.7810 233° Southwest 451 519 36,000 -7,140 Level FlightAware
10:38AM 2.3080 111.5930 235° Southwest 439 505 26,200 -6,960 Descending FlightAware
10:39AM 2.2700 111.5420 233° Southwest 439 505 26,200  Level FlightAware
10:39AM 2.2320 111.4920 233° Southwest 439 505 26,200  Level FlightAware
10:40AM 2.1950 111.4430 233° Southwest 439 505 26,200  Level FlightAware
10:41AM 2.1550 111.3900 233° Southwest 439 505 26,200 -7,140 Level FlightAware
10:41AM 2.1010 111.3510 216° Southwest 374 430 19,900 -7,140 Descending FlightAware
10:41AM 2.0540 111.3210 213° Southwest 374 430 19,900 -1,800 Level FlightAware
10:42AM 1.9900 111.2790 213° Southwest 353 406 17,600 -2,580 Descending FlightAware
10:42AM 1.9650 111.2460 233° Southwest 339 390 17,100 -1,200 Descending FlightAware
10:43AM 1.9370 111.1980 240° Southwest 322 371 16,400 -1,140 Descending FlightAware
10:44AM 1.9090 111.1500 240° Southwest 307 353 15,700 -1,380 Descending FlightAware
10:44AM 1.8870 111.1110 241° Southwest 307 353 14,800 -1,680 Descending FlightAware
10:45AM 1.8590 111.0640 239° Southwest 305 351 13,800 -1,560 Descending FlightAware
10:45AM 1.8370 111.0250 241° Southwest 299 344 13,000 -1,500 Descending FlightAware
10:46AM 1.8130 110.9820 241° Southwest 295 339 12,100 -1,620 Descending FlightAware
10:47AM 1.7880 110.9390 240° Southwest 291 335 11,100 -1,500 Descending FlightAware
10:47AM 1.7660 110.9020 239° Southwest 284 327 10,400 -1,320 Descending FlightAware
10:47AM 1.7540 110.8800 241° Southwest 280 322 10,000 -1,680 Descending FlightAware
10:48AM 1.7380 110.8530 239° Southwest 283 326 9,200 -1,800 Descending FlightAware
10:48AM 1.7250 110.8300 241° Southwest 283 326 8,700 -1,620 Descending FlightAware
10:49AM 1.7110 110.8070 239° Southwest 283 326 8,100 -1,680 Descending FlightAware
10:49AM 1.6960 110.7800 241° Southwest 280 322 7,500 -1,680 Descending FlightAware
10:49AM 1.6870 110.7640 241° Southwest 279 321 7,100 -1,860 Descending FlightAware
10:50AM 1.6740 110.7410 241° Southwest 284 327 6,400 -1,860 Descending FlightAware
10:50AM 1.6570 110.7120 240° Southwest 280 322 5,700 -1,620 Descending FlightAware
10:50AM 1.6450 110.6920 239° Southwest 277 319 5,300 -1,380 Descending FlightAware
10:51AM 1.6290 110.6630 241° Southwest 271 312 4,700 -1,620 Descending FlightAware
10:51AM 1.6170 110.6420 240° Southwest 269 310 4,100 -1,740 Descending FlightAware
10:51AM 1.6020 110.6180 238° Southwest 267 307 3,500 -1,440 Descending FlightAware
10:52AM 1.5900 110.5960 241° Southwest 263 303 3,100 -900 Descending FlightAware
10:52AM 1.5770 110.5740 239° Southwest 246 283 2,900 -600 Descending FlightAware
10:52AM 1.5660 110.5540 241° Southwest 234 269 2,700 -600 Descending FlightAware
10:53AM 1.5590 110.5350 250° West 223 257 2,500 -600 Descending FlightAware
10:53AM 1.5500 110.5120 249° West 205 236 2,300 -180 Descending FlightAware
10:54AM 1.5430 110.4940 249° West 182 209 2,400  Climbing FlightAware
10:54AM 1.5390 110.4830 250° West 166 191 2,300 -540 Descending FlightAware
10:54AM 1.5330 110.4680 248° West 157 181 2,100 -720 Descending FlightAware
10:55AM 1.5270 110.4530 248° West 150 173 1,800 -840 Descending FlightAware
10:55AM 1.5210 110.4380 248° West 143 165 1,500 -720 Descending FlightAware
10:55AM 1.5160 110.4260 247° West 140 161 1,300 -720 Descending FlightAware
10:56AM 1.5110 110.4130 249° West 140 161 1,000 -720 Descending FlightAware
10:56AM 1.5060 110.4010 247° West 137 158 800 -720 Descending FlightAware
10:56AM 1.5010 110.3880 249° West 136 157 500 -720 Descending FlightAware
10:57AM 1.4970 110.3760 252° West 135 155 300 -600 Descending FlightAware
10:57AM 1.4920 110.3640 247° West 133 153 100 -660 Descending FlightAware
10:57AM 1.4890 110.3570 247° West 86 99 -420 Descending FlightAware